createdAt,value
2022-12-13T00:01:56.918Z,101413.66
2022-12-13T00:04:26.791Z,101407.28
2022-12-13T00:06:55.243Z,101393.47
2022-12-13T00:09:24.231Z,101408.31
2022-12-13T00:11:54.710Z,101412.81
2022-12-13T00:14:23.004Z,101409.84
2022-12-13T00:16:52.719Z,101400.41
2022-12-13T00:19:21.414Z,101405.97
2022-12-13T00:21:49.703Z,101378.66
2022-12-13T00:24:18.098Z,101402.72
2022-12-13T00:26:46.462Z,101374.09
2022-12-13T00:29:15.008Z,101392.34
2022-12-13T00:34:32.900Z,101396.47
2022-12-13T00:37:01.153Z,101387.88
2022-12-13T00:39:30.124Z,101382.28
2022-12-13T00:41:58.883Z,101372.47
2022-12-13T00:44:27.705Z,101390.69
2022-12-13T00:46:56.537Z,101373.63
2022-12-13T00:49:25.492Z,101382.28
2022-12-13T00:51:55.265Z,101368.03
2022-12-13T00:54:24.039Z,101377.84
2022-12-13T00:56:52.545Z,101378.44
2022-12-13T00:59:21.150Z,101378.94
2022-12-13T01:01:49.759Z,101349.13
2022-12-13T01:04:18.237Z,101377.16
2022-12-13T01:06:49.861Z,101365.69
2022-12-13T01:09:22.468Z,101365.88
2022-12-13T01:11:51.419Z,101366.66
2022-12-13T01:14:21.523Z,101364.22
2022-12-13T01:16:49.836Z,101355.53
2022-12-13T01:19:18.156Z,101368.22
2022-12-13T01:21:46.632Z,101364.16
2022-12-13T01:24:15.207Z,101359.34
2022-12-13T01:26:44.783Z,101360.00
2022-12-13T01:29:13.068Z,101349.84
2022-12-13T01:31:41.670Z,101360.66
2022-12-13T01:34:11.395Z,101344.47
2022-12-13T01:36:41.734Z,101365.53
2022-12-13T01:39:14.614Z,101369.88
2022-12-13T01:41:47.416Z,101362.75
2022-12-13T01:45:03.653Z,101365.19
2022-12-13T01:47:39.521Z,101372.69
2022-12-13T01:50:14.444Z,101350.53
2022-12-13T01:52:44.152Z,101376.69
2022-12-13T01:55:15.905Z,101370.56
2022-12-13T01:57:49.434Z,101373.22
2022-12-13T02:00:19.016Z,101371.84
2022-12-13T02:02:49.809Z,101358.56
2022-12-13T02:05:28.353Z,101359.16
2022-12-13T02:07:59.324Z,101369.88
2022-12-13T02:10:28.740Z,101365.53
2022-12-13T02:12:58.853Z,101364.91
2022-12-13T02:15:36.531Z,101357.03
2022-12-13T02:18:34.054Z,101358.63
2022-12-13T02:21:20.087Z,101355.41
2022-12-13T02:24:42.190Z,101326.59
2022-12-13T02:27:31.740Z,101336.69
2022-12-13T02:30:27.079Z,101329.66
2022-12-13T02:33:31.639Z,101344.25
2022-12-13T02:36:10.344Z,101343.88
2022-12-13T02:38:50.725Z,101344.34
2022-12-13T02:41:23.750Z,101346.69
2022-12-13T02:44:01.152Z,101323.44
2022-12-13T02:46:37.245Z,101320.19
2022-12-13T02:49:08.274Z,101331.53
2022-12-13T02:51:37.862Z,101328.72
2022-12-13T02:54:06.346Z,101330.44
2022-12-13T02:56:34.755Z,101326.44
2022-12-13T02:59:12.634Z,101321.13
2022-12-13T03:02:10.289Z,101329.34
2022-12-13T03:05:13.859Z,101333.31
2022-12-13T03:07:56.590Z,101331.38
2022-12-13T03:10:33.847Z,101328.44
2022-12-13T03:13:25.228Z,101295.03
2022-12-13T03:15:58.799Z,101321.56
2022-12-13T03:18:30.022Z,101330.84
2022-12-13T03:21:05.031Z,101335.19
2022-12-13T03:23:34.060Z,101305.53
2022-12-13T03:26:07.933Z,101310.84
2022-12-13T03:28:37.524Z,101328.00
2022-12-13T03:31:06.526Z,101328.44
2022-12-13T03:33:36.515Z,101312.28
2022-12-13T03:36:07.749Z,101315.22
2022-12-13T03:38:37.108Z,101324.25
2022-12-13T03:41:10.249Z,101339.75
2022-12-13T03:43:39.851Z,101329.53
2022-12-13T03:46:08.605Z,101326.28
2022-12-13T03:48:38.594Z,101331.88
2022-12-13T03:51:07.138Z,101331.09
2022-12-13T03:53:35.592Z,101325.31
2022-12-13T03:56:06.625Z,101329.06
2022-12-13T03:58:38.032Z,101331.00
2022-12-13T04:01:10.399Z,101335.59
2022-12-13T04:03:42.049Z,101333.81
2022-12-13T04:06:11.239Z,101331.59
2022-12-13T04:08:40.690Z,101329.13
2022-12-13T04:11:23.308Z,101327.59
2022-12-13T04:13:51.840Z,101334.09
2022-12-13T04:16:20.740Z,101327.63
2022-12-13T04:18:50.728Z,101327.50
2022-12-13T04:21:19.247Z,101308.75
2022-12-13T04:23:47.558Z,101318.03
2022-12-13T04:26:16.034Z,101322.00
2022-12-13T04:28:47.019Z,101306.47
2022-12-13T04:31:19.347Z,101303.81
2022-12-13T04:33:47.640Z,101316.41
2022-12-13T04:36:32.352Z,101311.81
2022-12-13T04:39:02.749Z,101312.13
2022-12-13T04:41:36.129Z,101315.97
2022-12-13T04:44:05.913Z,101318.34
2022-12-13T04:46:34.605Z,101298.22
2022-12-13T04:49:02.970Z,101318.13
2022-12-13T04:51:32.738Z,101309.69
2022-12-13T04:54:23.506Z,101311.88
2022-12-13T04:56:49.477Z,101310.22
2022-12-13T04:59:18.078Z,101301.41
2022-12-13T05:01:46.384Z,101311.78
2022-12-13T05:04:14.699Z,101308.44
2022-12-13T05:06:44.504Z,101286.22
2022-12-13T05:09:12.840Z,101288.78
2022-12-13T05:11:45.517Z,101293.47
2022-12-13T05:14:14.468Z,101287.59
2022-12-13T05:16:51.739Z,101295.50
2022-12-13T05:19:20.345Z,101297.16
2022-12-13T05:21:50.219Z,101279.09
2022-12-13T05:24:19.344Z,101283.78
2022-12-13T05:26:47.930Z,101290.97
2022-12-13T05:29:16.200Z,101284.84
2022-12-13T05:31:44.978Z,101286.97
2022-12-13T05:34:13.467Z,101268.75
2022-12-13T05:36:42.224Z,101296.75
2022-12-13T05:39:28.583Z,101240.84
2022-12-13T05:42:02.239Z,101295.53
2022-12-13T05:44:33.047Z,101296.44
2022-12-13T05:47:01.976Z,101287.78
2022-12-13T05:49:32.468Z,101293.72
2022-12-13T05:52:00.964Z,101287.88
2022-12-13T05:54:30.748Z,101284.44
2022-12-13T05:56:59.197Z,101201.25
2022-12-13T05:59:27.524Z,101283.53
2022-12-13T06:01:55.939Z,101290.78
2022-12-13T06:04:24.227Z,101288.91
2022-12-13T06:06:53.163Z,101283.53
2022-12-13T06:09:22.623Z,101284.31
2022-12-13T06:11:52.599Z,101290.44
2022-12-13T06:14:29.636Z,101277.47
2022-12-13T06:16:58.024Z,101294.69
2022-12-13T06:19:26.371Z,101289.44
2022-12-13T06:21:56.028Z,101286.53
2022-12-13T06:24:27.400Z,101280.16
2022-12-13T06:26:57.032Z,101288.56
2022-12-13T06:29:26.142Z,101291.38
2022-12-13T06:32:02.260Z,101280.44
2022-12-13T06:34:34.093Z,101291.38
2022-12-13T06:37:04.259Z,101285.53
2022-12-13T06:39:33.756Z,101287.41
2022-12-13T06:42:06.993Z,101272.66
2022-12-13T06:44:36.267Z,101288.31
2022-12-13T06:47:11.240Z,101278.78
2022-12-13T06:49:44.154Z,101281.84
2022-12-13T06:52:15.355Z,101274.81
2022-12-13T06:54:44.324Z,101276.72
2022-12-13T06:57:14.597Z,101276.59
2022-12-13T06:59:43.278Z,101251.75
2022-12-13T07:02:24.298Z,101277.47
2022-12-13T07:04:56.236Z,101276.59
2022-12-13T07:07:26.720Z,101274.63
2022-12-13T07:09:55.164Z,101268.06
2022-12-13T07:12:25.347Z,101240.09
2022-12-13T07:14:55.071Z,101260.09
2022-12-13T07:17:33.037Z,101276.81
2022-12-13T07:20:07.983Z,101260.22
2022-12-13T07:22:44.879Z,101255.41
2022-12-13T07:25:27.970Z,101264.84
2022-12-13T07:28:02.440Z,101261.66
2022-12-13T07:30:33.667Z,101275.81
2022-12-13T07:33:03.172Z,101284.94
2022-12-13T07:35:36.957Z,101272.47
2022-12-13T07:38:07.240Z,101289.31
2022-12-13T07:40:35.815Z,101287.91
2022-12-13T07:43:07.058Z,101292.78
2022-12-13T07:45:35.606Z,101288.56
2022-12-13T07:48:08.897Z,101295.84
2022-12-13T07:50:38.032Z,101296.19
2022-12-13T07:53:08.745Z,101272.75
2022-12-13T07:55:38.302Z,101282.31
2022-12-13T07:58:11.412Z,101294.28
2022-12-13T08:00:41.349Z,101281.56
2022-12-13T08:03:25.611Z,101302.19
2022-12-13T08:06:02.084Z,101296.78
2022-12-13T08:08:31.542Z,101299.06
2022-12-13T08:11:03.924Z,101293.59
2022-12-13T08:13:34.261Z,101304.53
2022-12-13T08:16:05.134Z,101303.63
2022-12-13T08:18:53.773Z,101311.69
2022-12-13T08:24:25.422Z,101314.84
2022-12-13T08:26:57.437Z,101308.41
2022-12-13T08:29:34.063Z,101319.63
2022-12-13T08:32:05.687Z,101315.44
2022-12-13T08:34:34.485Z,101315.44
2022-12-13T08:37:04.199Z,101308.63
2022-12-13T08:39:35.565Z,101320.91
2022-12-13T08:42:14.783Z,101308.09
2022-12-13T08:44:49.194Z,101325.53
2022-12-13T08:47:24.605Z,101320.28
2022-12-13T08:50:01.481Z,101340.38
2022-12-13T08:52:39.205Z,101305.31
2022-12-13T08:55:10.936Z,101320.16
2022-12-13T08:57:39.903Z,101309.16
2022-12-13T09:00:14.705Z,101302.28
2022-12-13T09:02:46.058Z,101329.25
2022-12-13T09:05:33.210Z,101338.75
2022-12-13T09:08:22.754Z,101336.06
2022-12-13T09:10:59.272Z,101291.19
2022-12-13T09:13:32.385Z,101336.16
2022-12-13T09:16:14.487Z,101312.44
2022-12-13T09:18:55.110Z,101328.91
2022-12-13T09:21:30.916Z,101329.75
2022-12-13T09:24:02.323Z,101326.16
2022-12-13T09:26:37.565Z,101329.13
2022-12-13T09:29:10.584Z,101300.50
2022-12-13T09:31:41.584Z,101329.63
2022-12-13T09:34:11.945Z,101321.56
2022-12-13T09:36:40.864Z,101325.75
2022-12-13T09:39:11.851Z,101329.16
2022-12-13T09:41:45.273Z,101315.13
2022-12-13T09:44:30.909Z,101310.97
2022-12-13T09:47:15.099Z,101328.84
2022-12-13T09:49:52.703Z,101324.38
2022-12-13T09:52:25.463Z,101310.19
2022-12-13T09:54:56.794Z,101317.91
2022-12-13T09:57:32.430Z,101319.47
2022-12-13T10:00:06.572Z,101298.19
2022-12-13T10:02:46.834Z,101316.50
2022-12-13T10:05:24.700Z,101308.88
2022-12-13T10:08:10.050Z,101293.03
2022-12-13T10:10:38.628Z,101264.59
2022-12-13T10:13:18.449Z,101268.72
2022-12-13T10:15:52.602Z,101285.81
2022-12-13T10:18:35.284Z,101290.06
2022-12-13T10:21:08.678Z,101275.25
2022-12-13T10:23:59.749Z,101283.44
2022-12-13T10:26:25.760Z,101279.19
2022-12-13T10:29:07.310Z,101268.81
2022-12-13T10:31:43.572Z,101256.56
2022-12-13T10:34:24.632Z,101259.50
2022-12-13T10:36:53.698Z,101267.22
2022-12-13T10:39:44.483Z,101269.41
2022-12-13T10:42:22.693Z,101252.16
2022-12-13T10:45:15.130Z,101257.75
2022-12-13T10:47:45.551Z,101237.72
2022-12-13T10:50:28.368Z,101238.56
2022-12-13T10:53:00.129Z,101249.34
2022-12-13T10:55:32.050Z,101241.22
2022-12-13T10:58:07.346Z,101240.94
2022-12-13T11:00:41.176Z,101245.41
2022-12-13T11:03:32.624Z,101240.84
2022-12-13T11:06:08.554Z,101207.72
2022-12-13T11:08:37.369Z,101236.06
2022-12-13T11:11:07.943Z,101207.22
2022-12-13T11:13:40.215Z,101231.72
2022-12-13T11:16:24.544Z,101211.75
2022-12-13T11:18:56.538Z,101224.78
2022-12-13T11:21:29.800Z,101213.50
2022-12-13T11:24:02.416Z,101215.59
2022-12-13T11:26:34.566Z,101193.63
2022-12-13T11:29:33.733Z,101220.69
2022-12-13T11:32:15.558Z,101221.47
2022-12-13T11:35:03.470Z,101175.56
2022-12-13T11:37:43.272Z,101207.06
2022-12-13T11:40:17.939Z,101196.41
2022-12-13T11:42:50.972Z,101201.84
2022-12-13T11:45:26.482Z,101195.31
2022-12-13T11:48:05.806Z,101198.84
2022-12-13T11:50:39.906Z,101191.66
2022-12-13T11:53:24.199Z,101193.91
2022-12-13T11:56:00.469Z,101176.16
2022-12-13T12:01:38.116Z,101154.25
2022-12-13T12:04:19.366Z,101168.16
2022-12-13T12:06:56.262Z,101159.53
2022-12-13T12:09:29.371Z,101160.50
2022-12-13T12:12:04.177Z,101162.50
2022-12-13T12:14:42.861Z,101143.28
2022-12-13T12:17:15.624Z,101153.47
2022-12-13T12:19:50.409Z,101159.81
2022-12-13T12:22:35.323Z,101122.00
2022-12-13T12:25:29.052Z,101164.19
2022-12-13T12:28:08.607Z,101129.22
2022-12-13T12:30:49.888Z,101156.63
2022-12-13T12:33:32.015Z,101168.22
2022-12-13T12:36:26.868Z,101173.88
2022-12-13T12:39:42.401Z,101158.41
2022-12-13T12:43:14.387Z,101154.53
2022-12-13T12:45:58.191Z,101154.38
2022-12-13T12:49:03.887Z,101147.94
2022-12-13T12:51:46.484Z,101147.53
2022-12-13T12:54:39.525Z,101155.22
2022-12-13T12:57:21.387Z,101131.09
2022-12-13T13:00:05.370Z,101154.09
2022-12-13T13:02:41.909Z,101155.84
2022-12-13T13:05:22.117Z,101136.34
2022-12-13T13:07:57.769Z,101135.53
2022-12-13T13:10:27.509Z,101128.53
2022-12-13T13:13:11.701Z,101138.59
2022-12-13T13:16:08.043Z,101141.41
2022-12-13T13:18:55.526Z,101136.81
2022-12-13T13:21:39.187Z,101130.81
2022-12-13T13:24:24.026Z,101131.41
2022-12-13T13:26:56.199Z,101129.72
2022-12-13T13:29:43.206Z,101126.94
2022-12-13T13:32:32.175Z,101101.81
2022-12-13T13:35:53.535Z,101103.72
2022-12-13T13:38:55.604Z,101109.38
2022-12-13T13:41:56.375Z,101106.25
2022-12-13T13:44:54.283Z,101115.03
2022-12-13T13:48:22.813Z,101102.38
2022-12-13T13:51:30.940Z,101105.28
2022-12-13T13:54:38.088Z,101101.66
2022-12-13T14:01:26.470Z,101100.84
2022-12-13T14:04:31.733Z,101102.63
2022-12-13T14:07:58.541Z,101078.25
2022-12-13T14:11:09.821Z,101067.97
2022-12-13T14:14:49.727Z,101088.44
2022-12-13T14:18:26.125Z,101084.47
2022-12-13T14:21:14.850Z,101080.28
2022-12-13T14:24:00.182Z,101077.56
2022-12-13T14:27:03.703Z,101073.75
2022-12-13T14:29:35.598Z,101056.44
2022-12-13T14:32:10.675Z,101061.50
2022-12-13T14:34:57.023Z,101075.22
2022-12-13T14:37:30.752Z,101044.59
2022-12-13T14:39:59.840Z,101059.72
2022-12-13T14:42:33.752Z,101068.63
2022-12-13T14:45:17.477Z,101060.13
2022-12-13T14:47:46.140Z,101048.50
2022-12-13T14:50:19.471Z,101053.09
2022-12-13T14:52:50.552Z,101059.13
2022-12-13T14:55:28.754Z,101016.41
2022-12-13T14:58:00.610Z,101064.34
2022-12-13T15:00:33.501Z,101031.78
2022-12-13T15:03:05.173Z,101018.91
2022-12-13T15:05:39.370Z,101049.16
2022-12-13T15:08:16.303Z,101032.13
2022-12-13T15:10:48.001Z,101023.31
2022-12-13T15:13:30.044Z,101015.69
2022-12-13T15:16:10.246Z,101037.44
2022-12-13T15:18:50.637Z,101026.16
2022-12-13T15:21:25.103Z,100996.66
2022-12-13T15:24:01.206Z,100986.38
2022-12-13T15:26:35.589Z,101018.13
2022-12-13T15:29:10.807Z,101008.63
2022-12-13T15:31:40.111Z,101013.53
2022-12-13T15:34:36.058Z,101010.72
2022-12-13T15:37:28.307Z,100981.50
2022-12-13T15:40:08.668Z,101015.66
2022-12-13T15:42:40.885Z,101017.63
2022-12-13T15:45:22.341Z,101004.38
2022-12-13T15:47:52.699Z,101014.13
2022-12-13T15:50:36.024Z,101014.78
2022-12-13T15:53:17.724Z,101007.34
2022-12-13T15:55:47.580Z,101007.06
2022-12-13T15:58:27.313Z,101015.06
2022-12-13T16:00:55.678Z,101000.41
2022-12-13T16:03:27.907Z,100994.28
2022-12-13T16:05:58.972Z,101005.56
2022-12-13T16:08:31.554Z,101001.03
2022-12-13T16:11:01.792Z,100994.59
2022-12-13T16:13:33.051Z,100997.78
2022-12-13T16:16:09.262Z,100983.41
2022-12-13T16:18:52.273Z,101001.94
2022-12-13T16:21:20.651Z,101014.34
2022-12-13T16:23:49.512Z,101020.13
2022-12-13T16:26:27.134Z,100972.69
2022-12-13T16:28:57.831Z,101000.97
2022-12-13T16:31:31.390Z,100997.56
2022-12-13T16:33:59.946Z,100996.59
2022-12-13T16:36:28.271Z,101002.19
2022-12-13T16:38:56.719Z,100999.53
2022-12-13T16:41:26.791Z,100980.47
2022-12-13T16:43:58.082Z,100981.88
2022-12-13T16:47:16.198Z,100992.53
2022-12-13T16:49:25.774Z,100994.13
2022-12-13T16:51:55.077Z,100996.69
2022-12-13T16:54:25.909Z,100973.38
2022-12-13T16:56:56.051Z,100990.63
2022-12-13T16:59:26.910Z,100974.16
2022-12-13T17:01:55.938Z,100983.91
2022-12-13T17:04:27.071Z,100956.94
2022-12-13T17:06:55.791Z,100999.53
2022-12-13T17:09:25.520Z,101003.09
2022-12-13T17:11:55.337Z,101005.91
2022-12-13T17:14:24.051Z,101003.34
2022-12-13T17:16:52.544Z,101000.06
2022-12-13T17:19:20.880Z,100997.75
2022-12-13T17:21:49.427Z,100926.34
2022-12-13T17:24:17.928Z,100985.53
2022-12-13T17:26:53.901Z,100981.00
2022-12-13T17:29:25.561Z,100980.09
2022-12-13T17:31:54.334Z,100985.34
2022-12-13T17:34:23.272Z,100975.78
2022-12-13T17:36:51.649Z,100944.19
2022-12-13T17:39:20.054Z,100979.22
2022-12-13T17:41:54.701Z,100977.91
2022-12-13T17:44:25.751Z,100984.34
2022-12-13T17:46:55.526Z,100997.50
2022-12-13T17:49:24.426Z,100996.13
2022-12-13T17:51:54.254Z,100991.28
2022-12-13T17:54:24.632Z,100980.72
2022-12-13T17:56:53.529Z,100967.94
2022-12-13T17:59:22.576Z,100979.72
2022-12-13T18:01:52.746Z,100973.44
2022-12-13T18:04:21.225Z,100978.47
2022-12-13T18:06:51.706Z,100980.09
2022-12-13T18:09:20.381Z,100956.13
2022-12-13T18:11:48.701Z,100973.31
2022-12-13T18:14:17.343Z,100932.84
2022-12-13T18:16:46.384Z,100968.97
2022-12-13T18:19:17.040Z,100964.72
2022-12-13T18:21:45.490Z,100957.41
2022-12-13T18:24:14.004Z,100961.69
2022-12-13T18:26:42.363Z,100957.84
2022-12-13T18:29:10.946Z,100966.09
2022-12-13T18:31:39.952Z,100944.91
2022-12-13T18:34:09.389Z,100952.03
2022-12-13T18:36:40.396Z,100919.81
2022-12-13T18:39:08.800Z,100950.84
2022-12-13T18:41:37.108Z,100943.94
2022-12-13T18:44:09.096Z,100946.75
2022-12-13T18:46:43.383Z,100947.13
2022-12-13T18:49:14.397Z,100950.53
2022-12-13T18:51:44.077Z,100926.94
2022-12-13T18:54:12.640Z,100953.25
2022-12-13T18:56:41.063Z,100930.66
2022-12-13T18:59:11.786Z,100944.31
2022-12-13T19:01:40.190Z,100941.38
2022-12-13T19:04:08.593Z,100928.00
2022-12-13T19:06:37.019Z,100920.00
2022-12-13T19:09:07.037Z,100882.97
2022-12-13T19:11:35.891Z,100905.94
2022-12-13T19:14:04.691Z,100907.78
2022-12-13T19:16:33.753Z,100921.88
2022-12-13T19:19:02.668Z,100880.53
2022-12-13T19:21:31.015Z,100916.19
2022-12-13T19:24:01.200Z,100914.41
2022-12-13T19:26:31.563Z,100913.25
2022-12-13T19:29:00.880Z,100862.56
2022-12-13T19:31:32.079Z,100910.34
2022-12-13T19:34:02.528Z,100892.34
2022-12-13T19:36:32.519Z,100896.88
2022-12-13T19:39:00.972Z,100905.63
2022-12-13T19:41:32.264Z,100903.06
2022-12-13T19:44:04.692Z,100901.56
2022-12-13T19:46:33.685Z,100898.47
2022-12-13T19:49:02.814Z,100890.69
2022-12-13T19:51:37.418Z,100838.47
2022-12-13T19:54:08.403Z,100876.94
2022-12-13T19:56:38.381Z,100865.72
2022-12-13T19:59:06.687Z,100868.44
2022-12-13T20:01:35.324Z,100864.38
2022-12-13T20:04:04.088Z,100836.34
2022-12-13T20:06:32.455Z,100842.72
2022-12-13T20:09:01.525Z,100861.13
2022-12-13T20:11:29.901Z,100823.41
2022-12-13T20:13:59.596Z,100847.59
2022-12-13T20:16:28.348Z,100848.22
2022-12-13T20:18:59.355Z,100818.59
2022-12-13T20:21:29.162Z,100836.63
2022-12-13T20:23:58.190Z,100816.13
2022-12-13T20:26:29.956Z,100832.78
2022-12-13T20:29:00.044Z,100817.81
2022-12-13T20:31:31.625Z,100832.25
2022-12-13T20:34:02.510Z,100827.75
2022-12-13T20:36:32.091Z,100804.97
2022-12-13T20:39:02.802Z,100812.59
2022-12-13T20:41:33.219Z,100806.81
2022-12-13T20:44:05.652Z,100807.19
2022-12-13T20:46:34.538Z,100806.88
2022-12-13T20:49:06.363Z,100804.06
2022-12-13T20:51:36.585Z,100771.06
2022-12-13T20:54:05.813Z,100789.69
2022-12-13T20:56:36.897Z,100756.63
2022-12-13T20:59:11.691Z,100791.28
2022-12-13T21:01:41.957Z,100772.31
2022-12-13T21:04:12.427Z,100790.00
2022-12-13T21:06:42.813Z,100760.75
2022-12-13T21:09:12.555Z,100783.22
2022-12-13T21:11:43.360Z,100742.63
2022-12-13T21:14:21.280Z,100746.38
2022-12-13T21:16:52.532Z,100765.94
2022-12-13T21:19:23.143Z,100745.56
2022-12-13T21:21:52.156Z,100746.28
2022-12-13T21:24:22.054Z,100769.22
2022-12-13T21:26:51.242Z,100755.50
2022-12-13T21:29:21.037Z,100761.53
2022-12-13T21:31:51.009Z,100731.94
2022-12-13T21:34:21.530Z,100752.50
2022-12-13T21:36:53.101Z,100710.38
2022-12-13T21:39:24.490Z,100717.28
2022-12-13T21:41:54.011Z,100734.56
2022-12-13T21:44:24.251Z,100685.41
2022-12-13T21:49:41.378Z,100731.41
2022-12-13T21:52:09.739Z,100730.00
2022-12-13T21:57:50.768Z,100730.19
2022-12-13T22:00:20.470Z,100720.81
2022-12-13T22:02:48.779Z,100723.09
2022-12-13T22:05:17.096Z,100718.84
2022-12-13T22:07:45.345Z,100703.81
2022-12-13T22:10:16.739Z,100722.84
2022-12-13T22:12:45.121Z,100676.34
2022-12-13T22:15:16.845Z,100693.78
2022-12-13T22:17:46.520Z,100713.28
2022-12-13T22:20:15.879Z,100682.03
2022-12-13T22:22:46.941Z,100708.22
2022-12-13T22:25:15.297Z,100679.47
2022-12-13T22:27:43.625Z,100710.44
2022-12-13T22:30:12.980Z,100713.19
2022-12-13T22:32:42.334Z,100707.06
2022-12-13T22:35:14.561Z,100676.34
2022-12-13T22:37:42.892Z,100703.13
2022-12-13T22:40:13.608Z,100707.81
2022-12-13T22:42:42.754Z,100696.72
2022-12-13T22:45:17.325Z,100699.75
2022-12-13T22:47:45.641Z,100629.63
2022-12-13T22:50:16.608Z,100650.84
2022-12-13T22:52:44.921Z,100690.00
2022-12-13T22:55:13.244Z,100655.47
2022-12-13T22:57:41.516Z,100694.25
2022-12-13T23:00:14.430Z,100693.53
2022-12-13T23:02:42.815Z,100698.59
2022-12-13T23:05:11.370Z,100703.19
2022-12-13T23:07:41.003Z,100704.88
2022-12-13T23:10:30.079Z,100689.47
2022-12-13T23:13:03.717Z,100697.59
2022-12-13T23:15:32.350Z,100667.78
2022-12-13T23:18:00.681Z,100690.06
2022-12-13T23:20:28.970Z,100689.38
2022-12-13T23:22:59.283Z,100669.91
2022-12-13T23:25:27.567Z,100674.22
2022-12-13T23:27:56.051Z,100672.72
2022-12-13T23:30:24.371Z,100666.34
2022-12-13T23:32:52.615Z,100657.56
2022-12-13T23:35:20.950Z,100656.94
2022-12-13T23:37:50.378Z,100651.09
2022-12-13T23:40:20.118Z,100656.63
2022-12-13T23:42:49.354Z,100663.25
2022-12-13T23:45:17.754Z,100662.53
2022-12-13T23:47:46.069Z,100656.41
2022-12-13T23:50:14.375Z,100629.31
2022-12-13T23:52:42.652Z,100636.69
2022-12-13T23:55:11.568Z,100628.00
2022-12-13T23:57:41.197Z,100605.88
